createdAt,value
2023-05-19T00:02:47.980Z,6.10
2023-05-19T00:05:54.077Z,6.10
2023-05-19T00:09:01.152Z,6.00
2023-05-19T00:12:06.207Z,6.00
2023-05-19T00:15:11.396Z,6.00
2023-05-19T00:18:16.517Z,5.90
2023-05-19T00:21:21.023Z,5.90
2023-05-19T00:24:25.310Z,5.90
2023-05-19T00:27:29.626Z,5.80
2023-05-19T00:30:34.411Z,5.80
2023-05-19T00:33:39.173Z,5.80
2023-05-19T00:36:43.808Z,5.80
2023-05-19T00:39:51.698Z,5.80
2023-05-19T00:42:55.814Z,5.90
2023-05-19T00:46:00.523Z,5.90
2023-05-19T00:49:04.930Z,5.90
2023-05-19T00:52:09.598Z,5.80
2023-05-19T00:55:14.646Z,5.80
2023-05-19T00:58:19.583Z,5.70
2023-05-19T01:01:26.915Z,5.70
2023-05-19T01:04:34.808Z,5.60
2023-05-19T01:07:41.524Z,5.50
2023-05-19T01:10:46.104Z,5.50
2023-05-19T01:13:50.719Z,5.50
2023-05-19T01:17:05.557Z,5.30
2023-05-19T01:20:42.780Z,5.30
2023-05-19T01:24:22.908Z,5.30
2023-05-19T01:27:30.883Z,5.30
2023-05-19T01:30:43.297Z,5.30
2023-05-19T01:33:51.746Z,5.20
2023-05-19T01:36:58.168Z,5.20
2023-05-19T01:40:03.719Z,5.20
2023-05-19T01:43:11.732Z,5.20
2023-05-19T01:46:17.510Z,5.10
2023-05-19T01:49:22.102Z,5.00
2023-05-19T01:52:26.614Z,5.00
2023-05-19T01:55:30.963Z,5.00
2023-05-19T01:58:48.065Z,5.00
2023-05-19T02:01:54.898Z,4.90
2023-05-19T02:05:13.448Z,4.90
2023-05-19T02:08:27.739Z,4.90
2023-05-19T02:11:42.213Z,4.90
2023-05-19T02:14:58.340Z,4.90
2023-05-19T02:18:04.481Z,4.80
2023-05-19T02:21:13.092Z,4.80
2023-05-19T02:24:18.441Z,4.80
2023-05-19T02:27:22.951Z,4.80
2023-05-19T02:30:27.838Z,4.80
2023-05-19T02:33:32.388Z,4.70
2023-05-19T02:36:38.877Z,4.80
2023-05-19T02:39:44.336Z,4.70
2023-05-19T02:42:49.000Z,4.70
2023-05-19T02:45:53.614Z,4.60
2023-05-19T02:48:57.759Z,4.60
2023-05-19T02:52:03.293Z,4.60
2023-05-19T02:55:08.260Z,4.60
2023-05-19T02:58:13.005Z,4.50
2023-05-19T03:01:17.581Z,4.50
2023-05-19T03:04:22.110Z,4.50
2023-05-19T03:07:26.773Z,4.50
2023-05-19T03:10:31.536Z,4.50
2023-05-19T03:13:36.118Z,4.50
2023-05-19T03:16:43.692Z,4.50
2023-05-19T03:19:48.543Z,4.60
2023-05-19T03:22:53.027Z,4.50
2023-05-19T03:25:57.426Z,4.50
2023-05-19T03:29:02.125Z,4.50
2023-05-19T03:32:08.589Z,4.60
2023-05-19T03:35:13.896Z,4.80
2023-05-19T03:38:18.343Z,4.90
2023-05-19T03:41:31.183Z,5.00
2023-05-19T03:44:35.892Z,5.10
2023-05-19T03:47:41.349Z,5.30
2023-05-19T03:51:06.054Z,5.40
2023-05-19T03:54:10.560Z,5.60
2023-05-19T03:57:15.156Z,5.80
2023-05-19T04:00:20.245Z,6.00
2023-05-19T04:03:26.153Z,6.10
2023-05-19T04:06:31.062Z,6.20
2023-05-19T04:09:36.052Z,6.40
2023-05-19T04:12:40.895Z,6.50
2023-05-19T04:15:46.856Z,6.60
2023-05-19T04:18:51.243Z,6.80
2023-05-19T04:21:55.403Z,6.90
2023-05-19T04:25:00.450Z,6.90
2023-05-19T04:28:05.206Z,7.20
2023-05-19T04:31:11.107Z,7.50
2023-05-19T04:34:19.791Z,7.70
2023-05-19T04:37:27.829Z,8.10
2023-05-19T04:40:32.960Z,8.30
2023-05-19T04:43:41.704Z,8.50
2023-05-19T04:46:46.648Z,8.80
2023-05-19T04:49:55.401Z,9.10
2023-05-19T04:52:59.855Z,9.30
2023-05-19T04:56:05.909Z,9.60
2023-05-19T04:59:10.866Z,9.80
2023-05-19T05:02:15.534Z,10.00
2023-05-19T05:05:20.146Z,10.30
2023-05-19T05:08:24.529Z,10.60
2023-05-19T05:11:30.852Z,10.80
2023-05-19T05:14:35.813Z,11.00
2023-05-19T05:17:41.390Z,11.60
2023-05-19T05:20:46.844Z,12.10
2023-05-19T05:23:52.329Z,12.20
2023-05-19T05:26:59.343Z,12.70
2023-05-19T05:30:05.091Z,12.80
2023-05-19T05:33:10.035Z,12.50
2023-05-19T05:36:16.068Z,12.90
2023-05-19T05:39:20.678Z,13.30
2023-05-19T05:42:27.664Z,13.40
2023-05-19T05:45:33.979Z,14.00
2023-05-19T05:48:39.329Z,14.10
2023-05-19T05:51:54.316Z,14.60
2023-05-19T05:55:11.461Z,14.80
2023-05-19T05:58:17.106Z,15.50
2023-05-19T06:01:21.917Z,15.70
2023-05-19T06:04:26.606Z,15.70
2023-05-19T06:07:32.219Z,15.70
2023-05-19T06:10:38.708Z,16.30
2023-05-19T06:13:45.897Z,16.50
2023-05-19T06:16:58.335Z,16.70
2023-05-19T06:20:04.253Z,17.00
2023-05-19T06:23:08.836Z,17.30
2023-05-19T06:26:13.488Z,17.20
2023-05-19T06:29:17.815Z,17.70
2023-05-19T06:32:22.735Z,18.10
2023-05-19T06:35:27.504Z,17.90
2023-05-19T06:38:32.465Z,18.50
2023-05-19T06:41:37.306Z,18.70
2023-05-19T06:44:42.162Z,18.80
2023-05-19T06:47:49.479Z,19.00
2023-05-19T06:50:54.386Z,19.00
2023-05-19T06:53:58.903Z,17.70
2023-05-19T06:57:04.487Z,18.10
2023-05-19T07:00:15.253Z,16.40
2023-05-19T07:03:24.688Z,16.30
2023-05-19T07:06:29.496Z,16.30
2023-05-19T07:09:33.880Z,16.20
2023-05-19T07:12:39.054Z,17.50
2023-05-19T07:15:44.110Z,16.50
2023-05-19T07:18:48.663Z,16.50
2023-05-19T07:21:52.983Z,16.70
2023-05-19T07:24:57.273Z,16.40
2023-05-19T07:28:01.909Z,17.20
2023-05-19T07:31:06.703Z,16.60
2023-05-19T07:34:11.146Z,15.80
2023-05-19T07:37:16.268Z,15.80
2023-05-19T07:40:20.739Z,16.60
2023-05-19T07:43:25.449Z,17.80
2023-05-19T07:46:30.279Z,16.50
2023-05-19T07:49:34.837Z,18.30
2023-05-19T07:52:39.165Z,18.40
2023-05-19T07:55:43.389Z,17.80
2023-05-19T07:58:47.888Z,18.50
2023-05-19T08:01:52.216Z,18.70
2023-05-19T08:04:56.540Z,18.80
2023-05-19T08:08:01.035Z,19.20
2023-05-19T08:11:05.460Z,18.70
2023-05-19T08:14:10.774Z,19.60
2023-05-19T08:17:15.484Z,19.80
2023-05-19T08:20:20.331Z,21.10
2023-05-19T08:23:25.073Z,22.20
2023-05-19T08:26:29.620Z,23.40
2023-05-19T08:29:34.122Z,23.60
2023-05-19T08:32:38.735Z,23.70
2023-05-19T08:35:43.381Z,23.90
2023-05-19T08:38:48.003Z,22.60
2023-05-19T08:41:55.771Z,21.30
2023-05-19T08:45:01.611Z,19.10
2023-05-19T08:48:06.814Z,19.20
2023-05-19T08:51:42.411Z,19.10
2023-05-19T08:55:09.758Z,21.60
2023-05-19T08:58:16.277Z,21.60
2023-05-19T09:01:22.315Z,21.90
2023-05-19T09:04:30.004Z,21.50
2023-05-19T09:07:37.760Z,21.40
2023-05-19T09:10:41.917Z,22.90
2023-05-19T09:13:46.983Z,24.60
2023-05-19T09:16:52.817Z,24.80
2023-05-19T09:20:01.541Z,23.00
2023-05-19T09:23:06.217Z,22.80
2023-05-19T09:26:10.800Z,21.90
2023-05-19T09:29:18.453Z,23.00
2023-05-19T09:32:29.240Z,23.70
2023-05-19T09:35:35.087Z,22.80
2023-05-19T09:38:40.087Z,22.20
2023-05-19T09:41:45.153Z,22.40
2023-05-19T09:44:51.563Z,23.20
2023-05-19T09:47:56.094Z,22.30
2023-05-19T09:51:06.295Z,21.90
2023-05-19T09:54:16.254Z,22.40
2023-05-19T09:57:27.069Z,21.80
2023-05-19T10:00:32.872Z,22.30
2023-05-19T10:03:39.189Z,22.10
2023-05-19T10:06:44.686Z,21.40
2023-05-19T10:09:50.137Z,21.80
2023-05-19T10:12:55.115Z,23.40
2023-05-19T10:16:00.539Z,25.30
2023-05-19T10:19:07.682Z,22.30
2023-05-19T10:22:12.218Z,23.60
2023-05-19T10:25:19.752Z,24.80
2023-05-19T10:28:31.705Z,21.50
2023-05-19T10:31:40.208Z,19.90
2023-05-19T10:34:59.821Z,19.60
2023-05-19T10:38:25.066Z,19.10
2023-05-19T10:41:46.971Z,18.70
2023-05-19T10:45:12.985Z,19.10
2023-05-19T10:48:19.402Z,19.60
2023-05-19T10:51:33.934Z,18.00
2023-05-19T10:54:43.611Z,18.50
2023-05-19T10:57:57.189Z,17.50
2023-05-19T11:01:01.772Z,18.00
2023-05-19T11:04:13.947Z,18.60
2023-05-19T11:07:22.486Z,17.90
2023-05-19T11:10:26.688Z,18.20
2023-05-19T11:13:31.428Z,17.10
2023-05-19T11:16:36.135Z,17.50
2023-05-19T11:19:41.989Z,17.20
2023-05-19T11:23:11.092Z,17.50
2023-05-19T11:26:15.866Z,16.80
2023-05-19T11:29:21.403Z,17.00
2023-05-19T11:32:31.913Z,17.20
2023-05-19T11:35:37.361Z,17.30
2023-05-19T11:38:43.222Z,17.50
2023-05-19T11:41:47.460Z,18.10
2023-05-19T11:44:56.183Z,18.00
2023-05-19T11:48:04.091Z,18.80
2023-05-19T11:51:08.696Z,17.00
2023-05-19T11:54:13.124Z,17.10
2023-05-19T11:57:17.982Z,17.40
2023-05-19T12:00:23.325Z,17.70
2023-05-19T12:03:28.765Z,18.10
2023-05-19T12:06:34.315Z,18.10
2023-05-19T12:09:39.483Z,18.30
2023-05-19T12:12:45.240Z,18.40
2023-05-19T12:15:52.256Z,18.60
2023-05-19T12:18:57.148Z,17.90
2023-05-19T12:22:04.006Z,18.70
2023-05-19T12:25:09.263Z,18.40
2023-05-19T12:28:16.186Z,19.30
2023-05-19T12:31:23.752Z,18.90
2023-05-19T12:34:28.438Z,19.20
2023-05-19T12:37:34.892Z,18.60
2023-05-19T12:40:39.586Z,18.50
2023-05-19T12:43:43.658Z,18.10
2023-05-19T12:46:52.167Z,18.60
2023-05-19T12:49:59.429Z,18.50
2023-05-19T12:53:08.549Z,19.30
2023-05-19T12:56:16.917Z,18.50
2023-05-19T12:59:37.845Z,17.80
2023-05-19T13:03:06.712Z,17.80
2023-05-19T13:06:11.788Z,18.10
2023-05-19T13:09:17.823Z,17.40
2023-05-19T13:12:22.479Z,17.30
2023-05-19T13:15:27.734Z,18.20
2023-05-19T13:18:32.535Z,17.80
2023-05-19T13:21:37.051Z,18.20
2023-05-19T13:24:41.295Z,17.00
2023-05-19T13:27:47.951Z,17.70
2023-05-19T13:30:52.464Z,18.30
2023-05-19T13:33:56.737Z,17.90
2023-05-19T13:37:01.433Z,17.30
2023-05-19T13:40:06.835Z,17.20
2023-05-19T13:43:11.420Z,17.90
2023-05-19T13:46:15.714Z,16.90
2023-05-19T13:49:20.045Z,16.70
2023-05-19T13:52:24.562Z,16.10
2023-05-19T13:55:29.484Z,16.00
2023-05-19T13:58:34.231Z,16.00
2023-05-19T14:01:38.749Z,16.30
2023-05-19T14:04:43.101Z,17.10
2023-05-19T14:07:47.773Z,16.50
2023-05-19T14:10:52.304Z,16.80
2023-05-19T14:13:56.758Z,17.00
2023-05-19T14:17:01.002Z,17.30
2023-05-19T14:20:05.793Z,17.30
2023-05-19T14:23:10.100Z,17.70
2023-05-19T14:26:14.607Z,16.90
2023-05-19T14:29:19.405Z,17.10
2023-05-19T14:32:24.269Z,17.70
2023-05-19T14:35:28.631Z,17.60
2023-05-19T14:38:33.159Z,17.90
2023-05-19T14:41:37.824Z,17.70
2023-05-19T14:44:42.014Z,17.60
2023-05-19T14:47:47.695Z,17.20
2023-05-19T14:50:53.479Z,16.50
2023-05-19T14:53:57.844Z,17.20
2023-05-19T14:57:02.957Z,17.10
2023-05-19T15:00:10.153Z,17.70
2023-05-19T15:03:14.400Z,17.80
2023-05-19T15:06:18.561Z,17.80
2023-05-19T15:09:23.333Z,17.80
2023-05-19T15:12:27.701Z,18.40
2023-05-19T15:15:32.164Z,17.40
2023-05-19T15:18:37.248Z,18.20
2023-05-19T15:21:42.521Z,18.50
2023-05-19T15:24:47.140Z,19.30
2023-05-19T15:27:51.793Z,19.30
2023-05-19T15:30:56.469Z,20.00
2023-05-19T15:34:00.856Z,19.40
2023-05-19T15:37:05.579Z,18.90
2023-05-19T15:40:10.741Z,19.20
2023-05-19T15:43:15.176Z,19.00
2023-05-19T15:46:19.688Z,18.80
2023-05-19T15:49:25.160Z,19.00
2023-05-19T15:52:29.649Z,18.80
2023-05-19T15:55:34.128Z,19.60
2023-05-19T15:58:38.729Z,19.40
2023-05-19T16:01:43.195Z,18.20
2023-05-19T16:04:47.491Z,18.90
2023-05-19T16:07:51.828Z,19.00
2023-05-19T16:10:56.319Z,18.50
2023-05-19T16:14:01.018Z,19.20
2023-05-19T16:17:11.328Z,19.00
2023-05-19T16:20:16.086Z,19.20
2023-05-19T16:23:20.803Z,19.90
2023-05-19T16:26:26.446Z,19.00
2023-05-19T16:29:30.612Z,20.30
2023-05-19T16:32:35.034Z,20.00
2023-05-19T16:35:39.510Z,20.50
2023-05-19T16:38:44.122Z,20.20
2023-05-19T16:41:48.573Z,21.70
2023-05-19T16:44:52.992Z,20.40
2023-05-19T16:47:57.610Z,19.50
2023-05-19T16:51:01.816Z,17.30
2023-05-19T16:54:06.210Z,16.60
2023-05-19T16:57:10.651Z,16.70
2023-05-19T17:00:15.855Z,16.70
2023-05-19T17:03:20.212Z,16.50
2023-05-19T17:06:25.097Z,16.50
2023-05-19T17:09:29.628Z,16.50
2023-05-19T17:12:34.326Z,16.50
2023-05-19T17:15:40.909Z,16.30
2023-05-19T17:18:47.980Z,16.30
2023-05-19T17:21:52.415Z,16.20
2023-05-19T17:24:57.394Z,16.10
2023-05-19T17:28:02.036Z,16.00
2023-05-19T17:31:10.178Z,15.90
2023-05-19T17:34:14.395Z,15.80
2023-05-19T17:37:23.285Z,15.80
2023-05-19T17:40:28.522Z,15.70
2023-05-19T17:43:32.873Z,15.50
2023-05-19T17:46:39.256Z,15.40
2023-05-19T17:49:43.607Z,15.20
2023-05-19T17:52:48.330Z,15.30
2023-05-19T17:55:57.972Z,15.10
2023-05-19T17:59:02.825Z,15.10
2023-05-19T18:02:08.241Z,14.90
2023-05-19T18:05:13.149Z,14.80
2023-05-19T18:08:18.243Z,14.70
2023-05-19T18:11:23.041Z,14.60
2023-05-19T18:14:28.087Z,14.40
2023-05-19T18:17:32.642Z,14.40
2023-05-19T18:20:44.141Z,14.30
2023-05-19T18:23:48.366Z,14.20
2023-05-19T18:26:52.544Z,14.20
2023-05-19T18:29:57.062Z,14.00
2023-05-19T18:33:03.570Z,13.90
2023-05-19T18:36:08.530Z,13.70
2023-05-19T18:39:13.352Z,13.60
2023-05-19T18:42:17.761Z,13.50
2023-05-19T18:45:22.205Z,13.40
2023-05-19T18:48:27.220Z,13.30
2023-05-19T18:51:33.516Z,13.30
2023-05-19T18:54:38.898Z,13.20
2023-05-19T18:57:43.619Z,13.10
2023-05-19T19:00:48.173Z,13.00
2023-05-19T19:03:52.442Z,12.90
2023-05-19T19:06:56.752Z,12.80
2023-05-19T19:10:01.239Z,12.60
2023-05-19T19:13:06.515Z,12.50
2023-05-19T19:16:11.191Z,12.40
2023-05-19T19:19:15.775Z,12.40
2023-05-19T19:22:19.891Z,12.30
2023-05-19T19:25:24.520Z,12.10
2023-05-19T19:28:29.377Z,12.10
2023-05-19T19:31:33.940Z,11.90
2023-05-19T19:34:38.199Z,11.80
2023-05-19T19:37:42.519Z,11.70
2023-05-19T19:40:47.077Z,11.70
2023-05-19T19:43:51.961Z,11.60
2023-05-19T19:46:56.667Z,11.60
2023-05-19T19:50:02.575Z,11.50
2023-05-19T19:53:08.725Z,11.50
2023-05-19T19:56:12.841Z,11.40
2023-05-19T19:59:17.502Z,11.40
2023-05-19T20:02:22.727Z,11.30
2023-05-19T20:05:27.698Z,11.20
2023-05-19T20:08:32.203Z,11.10
2023-05-19T20:11:36.586Z,11.00
2023-05-19T20:14:41.217Z,10.90
2023-05-19T20:17:45.902Z,10.90
2023-05-19T20:20:51.186Z,10.80
2023-05-19T20:23:55.774Z,10.80
2023-05-19T20:27:00.499Z,10.70
2023-05-19T20:30:05.815Z,10.70
2023-05-19T20:33:11.853Z,10.70
2023-05-19T20:36:16.824Z,10.60
2023-05-19T20:39:21.319Z,10.60
2023-05-19T20:42:26.013Z,10.50
2023-05-19T20:45:30.717Z,10.50
2023-05-19T20:48:35.147Z,10.40
2023-05-19T20:51:39.725Z,10.20
2023-05-19T20:54:46.256Z,10.20
2023-05-19T20:57:51.073Z,10.00
2023-05-19T21:00:57.750Z,9.90
2023-05-19T21:04:06.856Z,9.80
2023-05-19T21:07:12.474Z,9.70
2023-05-19T21:10:18.025Z,9.60
2023-05-19T21:13:22.267Z,9.50
2023-05-19T21:16:26.809Z,9.40
2023-05-19T21:19:31.504Z,9.40
2023-05-19T21:22:36.003Z,9.30
2023-05-19T21:25:40.794Z,9.20
2023-05-19T21:28:45.594Z,9.20
2023-05-19T21:31:52.135Z,9.10
2023-05-19T21:34:56.811Z,9.00
2023-05-19T21:38:12.061Z,9.00
2023-05-19T21:41:25.887Z,8.80
2023-05-19T21:44:31.935Z,8.80
2023-05-19T21:47:36.408Z,8.80
2023-05-19T21:50:40.928Z,8.60
2023-05-19T21:53:45.546Z,8.50
2023-05-19T21:56:49.821Z,8.50
2023-05-19T21:59:54.230Z,8.40
2023-05-19T22:02:58.780Z,8.40
2023-05-19T22:06:03.334Z,8.30
2023-05-19T22:09:08.052Z,8.20
2023-05-19T22:12:12.602Z,8.10
2023-05-19T22:15:17.437Z,8.10
2023-05-19T22:18:22.169Z,8.00
2023-05-19T22:21:26.827Z,7.90
2023-05-19T22:24:31.359Z,7.90
2023-05-19T22:27:35.908Z,7.80
2023-05-19T22:30:42.190Z,7.70
2023-05-19T22:33:46.955Z,7.60
2023-05-19T22:36:51.442Z,7.60
2023-05-19T22:39:56.009Z,7.60
2023-05-19T22:43:00.450Z,7.50
2023-05-19T22:46:05.356Z,7.50
2023-05-19T22:49:09.648Z,7.50
2023-05-19T22:52:14.045Z,7.50
2023-05-19T22:55:18.604Z,7.40
2023-05-19T22:58:22.945Z,7.30
2023-05-19T23:01:27.559Z,7.30
2023-05-19T23:04:33.136Z,7.30
2023-05-19T23:07:37.455Z,7.20
2023-05-19T23:10:41.899Z,7.10
2023-05-19T23:13:46.530Z,7.10
2023-05-19T23:16:51.016Z,7.10
2023-05-19T23:19:55.339Z,7.00
2023-05-19T23:22:59.921Z,6.90
2023-05-19T23:26:04.814Z,6.90
2023-05-19T23:29:14.825Z,6.80
2023-05-19T23:32:19.378Z,6.60
2023-05-19T23:35:23.823Z,6.60
2023-05-19T23:38:28.418Z,6.50
2023-05-19T23:41:32.831Z,6.40
2023-05-19T23:44:37.039Z,6.30
2023-05-19T23:47:41.621Z,6.30
2023-05-19T23:50:46.158Z,6.30
2023-05-19T23:53:50.858Z,6.30
2023-05-19T23:56:55.807Z,6.20
